Havana, Cuba
Current Conditions -  °F | °C
As of 10:55 AM on Thursday 18 Dec 2014 (Local Time) from MUHA Reporting Station
Few Clouds Few Clouds  
Wind Chill: 73°   Ceiling: Unl
Heat Index: 73°   Visibility: 6mi
Dew Point: 59°   Wind: 6mph
Humidity: 61%   Direction: 60°ENE
Pressure: 30.18"   Gusts: NA
Location:  23.12°N, 82.39°W
Report Text: MUHA 181455Z 06005KT 020V100 9000 FEW030 23/15 Q1022
Loading
Personal Weather Stations






























Interactive Weather Map New forecast layout! Learn more

10-Day Weather Forecast

Advertisements
Track Severe Weather on mobile